sensor_id;sensor_type;location;lat;lon;timestamp;P1;durP1;ratioP1;P2;durP2;ratioP2
1747;SDS011;871;47.034;15.394;2023-02-28T05:02:33;43.85;;;6.30;;
1747;SDS011;871;47.034;15.394;2023-02-28T05:05:00;44.38;;;7.20;;
1747;SDS011;871;47.034;15.394;2023-02-28T05:07:26;45.90;;;7.85;;
1747;SDS011;871;47.034;15.394;2023-02-28T05:09:52;45.30;;;8.57;;
1747;SDS011;871;47.034;15.394;2023-02-28T05:12:18;43.45;;;7.47;;
1747;SDS011;871;47.034;15.394;2023-02-28T05:14:45;43.47;;;6.95;;
1747;SDS011;871;47.034;15.394;2023-02-28T05:17:11;48.25;;;7.97;;
1747;SDS011;871;47.034;15.394;2023-02-28T05:19:37;46.58;;;7.55;;
1747;SDS011;871;47.034;15.394;2023-02-28T05:22:03;41.70;;;7.70;;
1747;SDS011;871;47.034;15.394;2023-02-28T05:24:29;49.47;;;10.02;;
1747;SDS011;871;47.034;15.394;2023-02-28T05:26:55;43.20;;;7.82;;
1747;SDS011;871;47.034;15.394;2023-02-28T05:29:22;42.45;;;7.13;;
1747;SDS011;871;47.034;15.394;2023-02-28T05:31:48;47.22;;;7.47;;
1747;SDS011;871;47.034;15.394;2023-02-28T05:34:14;44.63;;;7.60;;
1747;SDS011;871;47.034;15.394;2023-02-28T05:36:41;49.85;;;6.80;;
1747;SDS011;871;47.034;15.394;2023-02-28T05:39:07;44.85;;;7.90;;
1747;SDS011;871;47.034;15.394;2023-02-28T05:41:37;43.72;;;6.47;;
1747;SDS011;871;47.034;15.394;2023-02-28T05:44:03;43.65;;;6.90;;
1747;SDS011;871;47.034;15.394;2023-02-28T05:46:29;50.05;;;8.50;;
1747;SDS011;871;47.034;15.394;2023-02-28T05:48:56;43.58;;;7.97;;
1747;SDS011;871;47.034;15.394;2023-02-28T05:51:24;44.22;;;7.32;;
1747;SDS011;871;47.034;15.394;2023-02-28T05:53:50;45.80;;;7.40;;
1747;SDS011;871;47.034;15.394;2023-02-28T05:56:16;43.35;;;7.50;;
1747;SDS011;871;47.034;15.394;2023-02-28T05:58:43;46.47;;;8.43;;
1747;SDS011;871;47.034;15.394;2023-02-28T06:03:47;45.80;;;7.13;;
1747;SDS011;871;47.034;15.394;2023-02-28T06:06:13;47.22;;;7.50;;
1747;SDS011;871;47.034;15.394;2023-02-28T06:08:39;46.85;;;8.23;;
1747;SDS011;871;47.034;15.394;2023-02-28T06:11:08;45.75;;;8.07;;
1747;SDS011;871;47.034;15.394;2023-02-28T06:13:34;44.30;;;7.57;;
1747;SDS011;871;47.034;15.394;2023-02-28T06:16:01;47.30;;;8.27;;
1747;SDS011;871;47.034;15.394;2023-02-28T06:18:27;50.53;;;7.70;;
1747;SDS011;871;47.034;15.394;2023-02-28T06:20:53;46.58;;;7.95;;
1747;SDS011;871;47.034;15.394;2023-02-28T06:23:20;44.47;;;8.00;;
1747;SDS011;871;47.034;15.394;2023-02-28T06:25:46;47.00;;;7.95;;
1747;SDS011;871;47.034;15.394;2023-02-28T06:28:12;44.22;;;7.60;;
1747;SDS011;871;47.034;15.394;2023-02-28T06:30:38;49.90;;;8.90;;
1747;SDS011;871;47.034;15.394;2023-02-28T06:33:05;43.72;;;6.80;;
1747;SDS011;871;47.034;15.394;2023-02-28T06:35:31;42.92;;;8.18;;
1747;SDS011;871;47.034;15.394;2023-02-28T06:37:57;44.55;;;7.80;;
1747;SDS011;871;47.034;15.394;2023-02-28T06:40:23;50.83;;;8.35;;
1747;SDS011;871;47.034;15.394;2023-02-28T06:42:49;50.30;;;10.35;;
1747;SDS011;871;47.034;15.394;2023-02-28T06:45:15;42.28;;;7.18;;
1747;SDS011;871;47.034;15.394;2023-02-28T06:47:41;56.65;;;8.75;;
1747;SDS011;871;47.034;15.394;2023-02-28T06:50:09;45.22;;;8.10;;
1747;SDS011;871;47.034;15.394;2023-02-28T06:52:35;44.35;;;7.80;;
1747;SDS011;871;47.034;15.394;2023-02-28T06:55:03;46.95;;;8.27;;
1747;SDS011;871;47.034;15.394;2023-02-28T06:57:29;47.95;;;9.13;;
1747;SDS011;871;47.034;15.394;2023-02-28T06:59:59;45.83;;;7.40;;
1747;SDS011;871;47.034;15.394;2023-02-28T07:02:25;48.22;;;8.70;;
1747;SDS011;871;47.034;15.394;2023-02-28T07:04:51;47.83;;;8.32;;
1747;SDS011;871;47.034;15.394;2023-02-28T07:07:17;50.22;;;9.43;;
1747;SDS011;871;47.034;15.394;2023-02-28T07:09:43;47.80;;;8.98;;
1747;SDS011;871;47.034;15.394;2023-02-28T07:12:10;47.70;;;8.95;;
1747;SDS011;871;47.034;15.394;2023-02-28T07:14:36;50.63;;;9.07;;
1747;SDS011;871;47.034;15.394;2023-02-28T07:17:02;47.70;;;8.25;;
1747;SDS011;871;47.034;15.394;2023-02-28T07:19:29;47.63;;;8.60;;
1747;SDS011;871;47.034;15.394;2023-02-28T07:21:55;47.47;;;9.52;;
1747;SDS011;871;47.034;15.394;2023-02-28T07:24:21;49.28;;;8.90;;
1747;SDS011;871;47.034;15.394;2023-02-28T07:26:50;49.78;;;8.93;;
1747;SDS011;871;47.034;15.394;2023-02-28T07:29:16;49.45;;;8.95;;
1747;SDS011;871;47.034;15.394;2023-02-28T07:31:42;45.50;;;8.63;;
1747;SDS011;871;47.034;15.394;2023-02-28T07:34:08;47.83;;;8.75;;
1747;SDS011;871;47.034;15.394;2023-02-28T07:36:34;46.15;;;8.60;;
1747;SDS011;871;47.034;15.394;2023-02-28T07:39:00;51.95;;;8.25;;
1747;SDS011;871;47.034;15.394;2023-02-28T07:41:27;45.67;;;8.40;;
1747;SDS011;871;47.034;15.394;2023-02-28T07:43:54;44.28;;;8.02;;
1747;SDS011;871;47.034;15.394;2023-02-28T07:46:22;49.55;;;10.02;;
1747;SDS011;871;47.034;15.394;2023-02-28T07:48:48;48.50;;;7.82;;
1747;SDS011;871;47.034;15.394;2023-02-28T07:51:14;44.42;;;7.80;;
1747;SDS011;871;47.034;15.394;2023-02-28T07:53:40;47.85;;;8.30;;
1747;SDS011;871;47.034;15.394;2023-02-28T07:56:06;48.53;;;9.10;;
1747;SDS011;871;47.034;15.394;2023-02-28T07:58:35;45.42;;;8.90;;
1747;SDS011;871;47.034;15.394;2023-02-28T08:01:08;46.42;;;9.07;;
1747;SDS011;871;47.034;15.394;2023-02-28T08:03:34;46.83;;;8.60;;
1747;SDS011;871;47.034;15.394;2023-02-28T08:06:01;46.90;;;8.00;;
1747;SDS011;871;47.034;15.394;2023-02-28T08:08:27;46.85;;;9.50;;
1747;SDS011;871;47.034;15.394;2023-02-28T08:10:57;45.95;;;7.88;;
1747;SDS011;871;47.034;15.394;2023-02-28T08:13:24;46.80;;;8.85;;
1747;SDS011;871;47.034;15.394;2023-02-28T08:15:54;48.67;;;9.25;;
1747;SDS011;871;47.034;15.394;2023-02-28T08:18:20;46.55;;;9.02;;
1747;SDS011;871;47.034;15.394;2023-02-28T08:20:46;49.28;;;10.10;;
1747;SDS011;871;47.034;15.394;2023-02-28T08:23:13;50.63;;;9.43;;
1747;SDS011;871;47.034;15.394;2023-02-28T08:25:41;48.30;;;9.05;;
1747;SDS011;871;47.034;15.394;2023-02-28T08:28:07;47.50;;;8.50;;
1747;SDS011;871;47.034;15.394;2023-02-28T08:30:33;47.90;;;9.03;;
1747;SDS011;871;47.034;15.394;2023-02-28T08:32:59;51.92;;;10.20;;
1747;SDS011;871;47.034;15.394;2023-02-28T08:35:26;51.13;;;9.63;;
1747;SDS011;871;47.034;15.394;2023-02-28T08:37:52;48.03;;;9.30;;
1747;SDS011;871;47.034;15.394;2023-02-28T08:40:18;51.10;;;9.27;;
1747;SDS011;871;47.034;15.394;2023-02-28T08:42:45;44.85;;;8.57;;
1747;SDS011;871;47.034;15.394;2023-02-28T08:45:11;50.42;;;8.63;;
1747;SDS011;871;47.034;15.394;2023-02-28T08:47:37;49.20;;;9.10;;
1747;SDS011;871;47.034;15.394;2023-02-28T08:50:04;50.97;;;10.65;;
1747;SDS011;871;47.034;15.394;2023-02-28T08:52:30;58.53;;;10.90;;
1747;SDS011;871;47.034;15.394;2023-02-28T08:54:56;56.08;;;9.88;;
1747;SDS011;871;47.034;15.394;2023-02-28T08:57:22;48.33;;;10.00;;
1747;SDS011;871;47.034;15.394;2023-02-28T08:59:51;46.97;;;8.77;;
1747;SDS011;871;47.034;15.394;2023-02-28T09:02:18;49.60;;;10.00;;
1747;SDS011;871;47.034;15.394;2023-02-28T09:04:44;48.88;;;8.73;;
1747;SDS011;871;47.034;15.394;2023-02-28T09:07:11;49.78;;;9.70;;
1747;SDS011;871;47.034;15.394;2023-02-28T09:09:37;47.63;;;9.90;;
1747;SDS011;871;47.034;15.394;2023-02-28T09:12:18;58.67;;;11.63;;
1747;SDS011;871;47.034;15.394;2023-02-28T09:14:44;54.28;;;10.20;;
1747;SDS011;871;47.034;15.394;2023-02-28T09:17:10;48.90;;;9.50;;
1747;SDS011;871;47.034;15.394;2023-02-28T09:19:36;53.45;;;9.70;;
1747;SDS011;871;47.034;15.394;2023-02-28T09:22:02;47.17;;;9.50;;
1747;SDS011;871;47.034;15.394;2023-02-28T09:24:28;50.80;;;10.30;;
1747;SDS011;871;47.034;15.394;2023-02-28T09:26:56;46.40;;;9.10;;
1747;SDS011;871;47.034;15.394;2023-02-28T09:29:24;51.15;;;9.98;;
1747;SDS011;871;47.034;15.394;2023-02-28T09:31:50;48.10;;;10.10;;
1747;SDS011;871;47.034;15.394;2023-02-28T09:34:16;50.10;;;9.73;;
1747;SDS011;871;47.034;15.394;2023-02-28T09:36:42;51.25;;;10.55;;
1747;SDS011;871;47.034;15.394;2023-02-28T09:39:08;51.55;;;10.40;;
1747;SDS011;871;47.034;15.394;2023-02-28T09:41:43;49.80;;;9.38;;
1747;SDS011;871;47.034;15.394;2023-02-28T09:47:01;45.10;;;8.70;;
1747;SDS011;871;47.034;15.394;2023-02-28T09:49:38;50.92;;;11.43;;
1747;SDS011;871;47.034;15.394;2023-02-28T09:52:28;47.35;;;9.93;;
1747;SDS011;871;47.034;15.394;2023-02-28T09:54:51;49.10;;;9.35;;
1747;SDS011;871;47.034;15.394;2023-02-28T10:02:17;54.72;;;11.55;;
1747;SDS011;871;47.034;15.394;2023-02-28T10:10:02;50.60;;;10.73;;
1747;SDS011;871;47.034;15.394;2023-02-28T10:12:30;53.72;;;11.35;;
1747;SDS011;871;47.034;15.394;2023-02-28T10:14:57;47.40;;;9.23;;
1747;SDS011;871;47.034;15.394;2023-02-28T10:17:30;56.85;;;10.55;;
1747;SDS011;871;47.034;15.394;2023-02-28T10:20:01;46.28;;;10.05;;
1747;SDS011;871;47.034;15.394;2023-02-28T10:22:47;48.97;;;9.68;;
1747;SDS011;871;47.034;15.394;2023-02-28T10:25:17;49.67;;;10.32;;
1747;SDS011;871;47.034;15.394;2023-02-28T10:27:43;62.45;;;12.35;;
1747;SDS011;871;47.034;15.394;2023-02-28T10:30:09;51.03;;;10.48;;
1747;SDS011;871;47.034;15.394;2023-02-28T10:32:38;50.10;;;11.20;;
1747;SDS011;871;47.034;15.394;2023-02-28T10:37:40;54.45;;;12.52;;
1747;SDS011;871;47.034;15.394;2023-02-28T10:40:25;57.88;;;10.02;;
1747;SDS011;871;47.034;15.394;2023-02-28T10:45:20;49.40;;;10.93;;
1747;SDS011;871;47.034;15.394;2023-02-28T10:47:53;51.90;;;11.95;;
1747;SDS011;871;47.034;15.394;2023-02-28T10:50:30;52.80;;;11.80;;
1747;SDS011;871;47.034;15.394;2023-02-28T10:53:06;55.80;;;11.80;;
1747;SDS011;871;47.034;15.394;2023-02-28T10:55:33;48.95;;;10.30;;
1747;SDS011;871;47.034;15.394;2023-02-28T10:57:59;52.97;;;11.52;;
1747;SDS011;871;47.034;15.394;2023-02-28T11:00:25;48.42;;;10.23;;
1747;SDS011;871;47.034;15.394;2023-02-28T11:02:57;52.58;;;10.77;;
1747;SDS011;871;47.034;15.394;2023-02-28T11:07:52;56.00;;;12.33;;
1747;SDS011;871;47.034;15.394;2023-02-28T11:10:19;51.72;;;13.48;;
1747;SDS011;871;47.034;15.394;2023-02-28T11:12:46;53.40;;;11.98;;
1747;SDS011;871;47.034;15.394;2023-02-28T11:20:38;49.63;;;13.55;;
1747;SDS011;871;47.034;15.394;2023-02-28T11:23:05;56.92;;;12.45;;
1747;SDS011;871;47.034;15.394;2023-02-28T11:25:37;49.43;;;10.70;;
1747;SDS011;871;47.034;15.394;2023-02-28T11:28:05;49.97;;;10.70;;
1747;SDS011;871;47.034;15.394;2023-02-28T11:30:38;47.77;;;10.33;;
1747;SDS011;871;47.034;15.394;2023-02-28T11:35:46;52.57;;;9.90;;
1747;SDS011;871;47.034;15.394;2023-02-28T11:38:13;51.93;;;11.40;;
1747;SDS011;871;47.034;15.394;2023-02-28T11:40:48;50.80;;;11.45;;
1747;SDS011;871;47.034;15.394;2023-02-28T11:48:29;51.08;;;12.13;;
1747;SDS011;871;47.034;15.394;2023-02-28T11:51:32;51.35;;;10.63;;
1747;SDS011;871;47.034;15.394;2023-02-28T11:56:52;54.13;;;11.03;;
1747;SDS011;871;47.034;15.394;2023-02-28T12:12:19;55.85;;;12.68;;
1747;SDS011;871;47.034;15.394;2023-02-28T12:20:13;50.10;;;11.43;;
1747;SDS011;871;47.034;15.394;2023-02-28T12:27:53;55.25;;;12.68;;
1747;SDS011;871;47.034;15.394;2023-02-28T12:30:21;53.58;;;11.95;;
1747;SDS011;871;47.034;15.394;2023-02-28T12:33:09;53.25;;;11.88;;
1747;SDS011;871;47.034;15.394;2023-02-28T12:35:38;55.20;;;13.82;;
1747;SDS011;871;47.034;15.394;2023-02-28T12:40:43;51.80;;;12.25;;
1747;SDS011;871;47.034;15.394;2023-02-28T12:43:11;53.40;;;12.07;;
1747;SDS011;871;47.034;15.394;2023-02-28T12:45:58;51.58;;;11.52;;
1747;SDS011;871;47.034;15.394;2023-02-28T12:48:38;57.90;;;13.60;;
1747;SDS011;871;47.034;15.394;2023-02-28T12:51:06;56.92;;;12.20;;
1747;SDS011;871;47.034;15.394;2023-02-28T12:56:21;54.80;;;13.68;;
1747;SDS011;871;47.034;15.394;2023-02-28T12:58:56;56.53;;;13.75;;
1747;SDS011;871;47.034;15.394;2023-02-28T13:09:16;53.80;;;13.90;;
1747;SDS011;871;47.034;15.394;2023-02-28T13:11:44;55.60;;;13.63;;
1747;SDS011;871;47.034;15.394;2023-02-28T13:16:59;55.55;;;12.10;;
1747;SDS011;871;47.034;15.394;2023-02-28T13:19:26;53.20;;;10.68;;
1747;SDS011;871;47.034;15.394;2023-02-28T13:21:53;49.63;;;11.80;;
1747;SDS011;871;47.034;15.394;2023-02-28T13:24:37;53.80;;;12.52;;
1747;SDS011;871;47.034;15.394;2023-02-28T13:29:31;60.15;;;12.82;;
1747;SDS011;871;47.034;15.394;2023-02-28T13:34:34;54.10;;;12.52;;
1747;SDS011;871;47.034;15.394;2023-02-28T13:47:49;58.03;;;12.20;;
1747;SDS011;871;47.034;15.394;2023-02-28T13:55:38;52.03;;;10.60;;
1747;SDS011;871;47.034;15.394;2023-02-28T13:58:20;53.70;;;12.20;;
1747;SDS011;871;47.034;15.394;2023-02-28T14:06:18;52.03;;;14.18;;
1747;SDS011;871;47.034;15.394;2023-02-28T14:08:49;54.10;;;10.45;;
1747;SDS011;871;47.034;15.394;2023-02-28T14:11:28;48.00;;;10.20;;
1747;SDS011;871;47.034;15.394;2023-02-28T14:13:56;48.27;;;10.20;;
1747;SDS011;871;47.034;15.394;2023-02-28T14:16:26;50.07;;;10.43;;
1747;SDS011;871;47.034;15.394;2023-02-28T14:18:59;48.70;;;9.77;;
1747;SDS011;871;47.034;15.394;2023-02-28T14:21:33;50.07;;;9.70;;
1747;SDS011;871;47.034;15.394;2023-02-28T14:29:12;49.40;;;10.13;;
1747;SDS011;871;47.034;15.394;2023-02-28T14:31:45;52.50;;;11.13;;
1747;SDS011;871;47.034;15.394;2023-02-28T14:36:58;54.97;;;11.40;;
1747;SDS011;871;47.034;15.394;2023-02-28T14:39:25;55.57;;;13.53;;
1747;SDS011;871;47.034;15.394;2023-02-28T14:41:56;50.50;;;11.20;;
1747;SDS011;871;47.034;15.394;2023-02-28T14:44:28;50.92;;;10.27;;
1747;SDS011;871;47.034;15.394;2023-02-28T14:46:55;50.50;;;11.50;;
1747;SDS011;871;47.034;15.394;2023-02-28T14:51:49;51.83;;;11.33;;
1747;SDS011;871;47.034;15.394;2023-02-28T14:54:16;48.08;;;10.43;;
1747;SDS011;871;47.034;15.394;2023-02-28T14:56:48;50.80;;;10.17;;
1747;SDS011;871;47.034;15.394;2023-02-28T15:02:12;52.40;;;11.33;;
1747;SDS011;871;47.034;15.394;2023-02-28T15:04:38;53.92;;;11.80;;
1747;SDS011;871;47.034;15.394;2023-02-28T15:07:07;47.38;;;10.02;;
1747;SDS011;871;47.034;15.394;2023-02-28T15:09:34;47.15;;;9.48;;
1747;SDS011;871;47.034;15.394;2023-02-28T15:12:00;51.28;;;10.15;;
1747;SDS011;871;47.034;15.394;2023-02-28T15:14:26;45.40;;;9.13;;
1747;SDS011;871;47.034;15.394;2023-02-28T15:16:57;48.38;;;9.40;;
1747;SDS011;871;47.034;15.394;2023-02-28T15:19:35;51.42;;;10.55;;
1747;SDS011;871;47.034;15.394;2023-02-28T15:22:03;47.40;;;9.50;;
1747;SDS011;871;47.034;15.394;2023-02-28T15:24:46;48.60;;;9.73;;
1747;SDS011;871;47.034;15.394;2023-02-28T15:27:14;45.92;;;8.48;;
1747;SDS011;871;47.034;15.394;2023-02-28T15:29:51;51.60;;;10.20;;
1747;SDS011;871;47.034;15.394;2023-02-28T15:34:47;49.50;;;9.68;;
1747;SDS011;871;47.034;15.394;2023-02-28T15:39:53;49.30;;;10.65;;
1747;SDS011;871;47.034;15.394;2023-02-28T15:42:21;47.50;;;8.90;;
1747;SDS011;871;47.034;15.394;2023-02-28T15:44:47;49.08;;;9.52;;
1747;SDS011;871;47.034;15.394;2023-02-28T15:47:21;50.38;;;10.10;;
1747;SDS011;871;47.034;15.394;2023-02-28T15:49:49;51.95;;;9.70;;
1747;SDS011;871;47.034;15.394;2023-02-28T15:52:16;49.08;;;9.73;;
1747;SDS011;871;47.034;15.394;2023-02-28T15:54:43;49.57;;;10.10;;
1747;SDS011;871;47.034;15.394;2023-02-28T15:57:13;51.42;;;9.05;;
1747;SDS011;871;47.034;15.394;2023-02-28T15:59:42;49.15;;;9.07;;
1747;SDS011;871;47.034;15.394;2023-02-28T16:02:18;48.47;;;10.23;;
1747;SDS011;871;47.034;15.394;2023-02-28T16:04:59;53.63;;;12.23;;
1747;SDS011;871;47.034;15.394;2023-02-28T16:07:25;52.25;;;9.68;;
1747;SDS011;871;47.034;15.394;2023-02-28T16:09:51;49.30;;;10.55;;
1747;SDS011;871;47.034;15.394;2023-02-28T16:12:20;49.40;;;11.98;;
1747;SDS011;871;47.034;15.394;2023-02-28T16:14:47;50.00;;;10.60;;
1747;SDS011;871;47.034;15.394;2023-02-28T16:17:20;50.10;;;10.98;;
1747;SDS011;871;47.034;15.394;2023-02-28T16:19:46;54.45;;;10.73;;
1747;SDS011;871;47.034;15.394;2023-02-28T16:22:12;54.13;;;11.38;;
1747;SDS011;871;47.034;15.394;2023-02-28T16:24:40;53.35;;;11.95;;
1747;SDS011;871;47.034;15.394;2023-02-28T16:27:06;53.00;;;12.35;;
1747;SDS011;871;47.034;15.394;2023-02-28T16:29:35;49.55;;;9.35;;
1747;SDS011;871;47.034;15.394;2023-02-28T16:32:06;52.80;;;10.60;;
1747;SDS011;871;47.034;15.394;2023-02-28T16:34:32;50.85;;;10.05;;
1747;SDS011;871;47.034;15.394;2023-02-28T16:36:58;54.67;;;10.70;;
1747;SDS011;871;47.034;15.394;2023-02-28T16:39:24;54.70;;;12.35;;
1747;SDS011;871;47.034;15.394;2023-02-28T16:41:51;50.10;;;10.38;;
1747;SDS011;871;47.034;15.394;2023-02-28T16:44:31;50.97;;;11.82;;
1747;SDS011;871;47.034;15.394;2023-02-28T16:46:59;53.20;;;12.65;;
1747;SDS011;871;47.034;15.394;2023-02-28T16:49:25;53.80;;;12.73;;
1747;SDS011;871;47.034;15.394;2023-02-28T16:51:52;53.95;;;12.50;;
1747;SDS011;871;47.034;15.394;2023-02-28T16:54:19;60.40;;;12.15;;
1747;SDS011;871;47.034;15.394;2023-02-28T16:56:46;55.37;;;12.13;;
1747;SDS011;871;47.034;15.394;2023-02-28T16:59:13;55.17;;;11.05;;
1747;SDS011;871;47.034;15.394;2023-02-28T17:01:41;53.70;;;11.48;;
1747;SDS011;871;47.034;15.394;2023-02-28T17:04:08;55.63;;;12.10;;
1747;SDS011;871;47.034;15.394;2023-02-28T17:06:35;51.28;;;10.73;;
1747;SDS011;871;47.034;15.394;2023-02-28T17:09:01;56.60;;;12.57;;
1747;SDS011;871;47.034;15.394;2023-02-28T17:11:27;52.90;;;12.48;;
1747;SDS011;871;47.034;15.394;2023-02-28T17:13:54;54.47;;;12.45;;
1747;SDS011;871;47.034;15.394;2023-02-28T17:16:25;56.97;;;13.07;;
1747;SDS011;871;47.034;15.394;2023-02-28T17:18:58;57.47;;;12.15;;
1747;SDS011;871;47.034;15.394;2023-02-28T17:21:24;60.80;;;12.60;;
1747;SDS011;871;47.034;15.394;2023-02-28T17:23:50;53.92;;;12.90;;
1747;SDS011;871;47.034;15.394;2023-02-28T17:26:17;57.63;;;13.70;;
1747;SDS011;871;47.034;15.394;2023-02-28T17:28:46;55.13;;;13.00;;
1747;SDS011;871;47.034;15.394;2023-02-28T17:31:12;54.67;;;13.48;;
1747;SDS011;871;47.034;15.394;2023-02-28T17:33:38;55.03;;;12.82;;
1747;SDS011;871;47.034;15.394;2023-02-28T17:36:05;54.10;;;11.40;;
1747;SDS011;871;47.034;15.394;2023-02-28T17:38:33;56.05;;;11.93;;
1747;SDS011;871;47.034;15.394;2023-02-28T17:41:00;52.47;;;12.00;;
1747;SDS011;871;47.034;15.394;2023-02-28T17:43:26;56.10;;;12.57;;
1747;SDS011;871;47.034;15.394;2023-02-28T17:45:53;52.42;;;11.43;;
1747;SDS011;871;47.034;15.394;2023-02-28T17:48:20;51.28;;;11.18;;
1747;SDS011;871;47.034;15.394;2023-02-28T17:50:46;51.25;;;10.70;;
1747;SDS011;871;47.034;15.394;2023-02-28T17:53:13;54.67;;;11.20;;
1747;SDS011;871;47.034;15.394;2023-02-28T17:55:41;51.05;;;11.30;;
1747;SDS011;871;47.034;15.394;2023-02-28T17:58:09;49.72;;;10.63;;
1747;SDS011;871;47.034;15.394;2023-02-28T18:00:39;55.15;;;13.20;;
1747;SDS011;871;47.034;15.394;2023-02-28T18:03:06;52.30;;;11.68;;
1747;SDS011;871;47.034;15.394;2023-02-28T18:05:34;56.05;;;12.93;;
1747;SDS011;871;47.034;15.394;2023-02-28T18:08:01;52.83;;;11.98;;
1747;SDS011;871;47.034;15.394;2023-02-28T18:10:27;54.03;;;12.00;;
1747;SDS011;871;47.034;15.394;2023-02-28T18:12:58;59.17;;;12.90;;
1747;SDS011;871;47.034;15.394;2023-02-28T18:15:24;53.67;;;12.88;;
1747;SDS011;871;47.034;15.394;2023-02-28T18:17:52;51.58;;;12.13;;
1747;SDS011;871;47.034;15.394;2023-02-28T18:20:18;54.75;;;13.13;;
1747;SDS011;871;47.034;15.394;2023-02-28T18:22:45;55.75;;;13.68;;
1747;SDS011;871;47.034;15.394;2023-02-28T18:25:11;55.60;;;13.10;;
1747;SDS011;871;47.034;15.394;2023-02-28T18:27:41;57.92;;;13.75;;
1747;SDS011;871;47.034;15.394;2023-02-28T18:30:21;50.72;;;13.05;;
1747;SDS011;871;47.034;15.394;2023-02-28T18:32:47;60.65;;;15.30;;
1747;SDS011;871;47.034;15.394;2023-02-28T18:35:14;59.05;;;14.93;;
1747;SDS011;871;47.034;15.394;2023-02-28T18:37:40;54.42;;;11.95;;
1747;SDS011;871;47.034;15.394;2023-02-28T18:40:06;59.08;;;14.55;;
1747;SDS011;871;47.034;15.394;2023-02-28T18:42:33;54.15;;;12.77;;
1747;SDS011;871;47.034;15.394;2023-02-28T18:44:59;55.42;;;12.77;;
1747;SDS011;871;47.034;15.394;2023-02-28T18:47:27;61.20;;;12.27;;
1747;SDS011;871;47.034;15.394;2023-02-28T18:49:53;49.40;;;10.90;;
1747;SDS011;871;47.034;15.394;2023-02-28T18:52:20;54.50;;;12.85;;
1747;SDS011;871;47.034;15.394;2023-02-28T18:54:51;52.85;;;13.07;;
1747;SDS011;871;47.034;15.394;2023-02-28T18:57:17;57.13;;;12.93;;
1747;SDS011;871;47.034;15.394;2023-02-28T18:59:45;55.83;;;12.45;;
1747;SDS011;871;47.034;15.394;2023-02-28T19:02:12;59.15;;;12.27;;
1747;SDS011;871;47.034;15.394;2023-02-28T19:04:42;53.35;;;11.65;;
1747;SDS011;871;47.034;15.394;2023-02-28T19:07:08;54.13;;;12.30;;
1747;SDS011;871;47.034;15.394;2023-02-28T19:09:40;53.83;;;13.38;;
1747;SDS011;871;47.034;15.394;2023-02-28T19:12:06;51.80;;;11.82;;
1747;SDS011;871;47.034;15.394;2023-02-28T19:14:32;54.78;;;11.32;;
1747;SDS011;871;47.034;15.394;2023-02-28T19:16:59;55.75;;;12.07;;
1747;SDS011;871;47.034;15.394;2023-02-28T19:19:25;48.88;;;10.88;;
1747;SDS011;871;47.034;15.394;2023-02-28T19:21:51;53.78;;;11.02;;
1747;SDS011;871;47.034;15.394;2023-02-28T19:24:18;51.72;;;11.63;;
1747;SDS011;871;47.034;15.394;2023-02-28T19:26:44;54.28;;;10.68;;
1747;SDS011;871;47.034;15.394;2023-02-28T19:29:10;54.70;;;11.45;;
1747;SDS011;871;47.034;15.394;2023-02-28T19:31:38;52.67;;;10.88;;
1747;SDS011;871;47.034;15.394;2023-02-28T19:34:06;51.25;;;10.52;;
1747;SDS011;871;47.034;15.394;2023-02-28T19:36:32;52.85;;;11.00;;
1747;SDS011;871;47.034;15.394;2023-02-28T19:39:00;53.35;;;11.57;;
1747;SDS011;871;47.034;15.394;2023-02-28T19:41:26;53.75;;;11.27;;
1747;SDS011;871;47.034;15.394;2023-02-28T19:43:55;55.35;;;12.10;;
1747;SDS011;871;47.034;15.394;2023-02-28T19:46:22;53.15;;;10.52;;
1747;SDS011;871;47.034;15.394;2023-02-28T19:48:48;54.20;;;11.15;;
1747;SDS011;871;47.034;15.394;2023-02-28T19:51:17;51.53;;;11.85;;
1747;SDS011;871;47.034;15.394;2023-02-28T19:53:46;52.72;;;12.23;;
1747;SDS011;871;47.034;15.394;2023-02-28T19:56:12;51.05;;;10.57;;
1747;SDS011;871;47.034;15.394;2023-02-28T19:58:40;49.67;;;10.95;;
1747;SDS011;871;47.034;15.394;2023-02-28T20:01:14;48.90;;;9.35;;
1747;SDS011;871;47.034;15.394;2023-02-28T20:03:42;49.10;;;10.85;;
1747;SDS011;871;47.034;15.394;2023-02-28T20:06:09;50.20;;;10.55;;
1747;SDS011;871;47.034;15.394;2023-02-28T20:08:37;49.78;;;9.35;;
1747;SDS011;871;47.034;15.394;2023-02-28T20:11:05;47.85;;;9.05;;
1747;SDS011;871;47.034;15.394;2023-02-28T20:13:32;53.00;;;10.63;;
1747;SDS011;871;47.034;15.394;2023-02-28T20:16:03;50.75;;;10.00;;
1747;SDS011;871;47.034;15.394;2023-02-28T20:18:30;51.28;;;10.05;;
1747;SDS011;871;47.034;15.394;2023-02-28T20:20:57;49.22;;;10.75;;
1747;SDS011;871;47.034;15.394;2023-02-28T20:23:24;50.15;;;9.75;;
1747;SDS011;871;47.034;15.394;2023-02-28T20:25:51;48.60;;;9.98;;
1747;SDS011;871;47.034;15.394;2023-02-28T20:28:18;52.95;;;10.75;;
1747;SDS011;871;47.034;15.394;2023-02-28T20:30:45;50.50;;;10.82;;
1747;SDS011;871;47.034;15.394;2023-02-28T20:33:17;51.20;;;10.13;;
1747;SDS011;871;47.034;15.394;2023-02-28T20:35:44;52.55;;;9.80;;
1747;SDS011;871;47.034;15.394;2023-02-28T20:38:10;48.97;;;9.70;;
1747;SDS011;871;47.034;15.394;2023-02-28T20:40:38;50.85;;;9.07;;
1747;SDS011;871;47.034;15.394;2023-02-28T20:43:04;48.20;;;9.27;;
1747;SDS011;871;47.034;15.394;2023-02-28T20:45:32;50.80;;;10.68;;
1747;SDS011;871;47.034;15.394;2023-02-28T20:48:00;47.25;;;9.23;;
1747;SDS011;871;47.034;15.394;2023-02-28T20:50:26;50.22;;;9.45;;
1747;SDS011;871;47.034;15.394;2023-02-28T20:52:52;47.92;;;9.40;;
1747;SDS011;871;47.034;15.394;2023-02-28T20:55:19;52.60;;;11.32;;
1747;SDS011;871;47.034;15.394;2023-02-28T20:57:45;55.92;;;11.23;;
1747;SDS011;871;47.034;15.394;2023-02-28T21:00:14;50.40;;;11.30;;
1747;SDS011;871;47.034;15.394;2023-02-28T21:02:45;52.35;;;9.90;;
1747;SDS011;871;47.034;15.394;2023-02-28T21:05:11;55.38;;;10.77;;
1747;SDS011;871;47.034;15.394;2023-02-28T21:07:39;54.00;;;11.65;;
1747;SDS011;871;47.034;15.394;2023-02-28T21:10:05;50.92;;;11.55;;
1747;SDS011;871;47.034;15.394;2023-02-28T21:12:33;52.22;;;11.02;;
1747;SDS011;871;47.034;15.394;2023-02-28T21:15:03;49.75;;;12.45;;
1747;SDS011;871;47.034;15.394;2023-02-28T21:17:29;53.35;;;12.35;;
1747;SDS011;871;47.034;15.394;2023-02-28T21:19:56;56.83;;;14.63;;
1747;SDS011;871;47.034;15.394;2023-02-28T21:22:22;56.80;;;14.60;;
1747;SDS011;871;47.034;15.394;2023-02-28T21:24:48;57.90;;;14.63;;
1747;SDS011;871;47.034;15.394;2023-02-28T21:27:15;55.58;;;14.70;;
1747;SDS011;871;47.034;15.394;2023-02-28T21:29:43;61.20;;;14.43;;
1747;SDS011;871;47.034;15.394;2023-02-28T21:32:10;55.22;;;12.95;;
1747;SDS011;871;47.034;15.394;2023-02-28T21:34:36;57.25;;;13.93;;
1747;SDS011;871;47.034;15.394;2023-02-28T21:37:02;54.17;;;14.80;;
1747;SDS011;871;47.034;15.394;2023-02-28T21:39:28;55.33;;;14.15;;
1747;SDS011;871;47.034;15.394;2023-02-28T21:41:54;57.53;;;14.43;;
1747;SDS011;871;47.034;15.394;2023-02-28T21:44:27;55.03;;;13.45;;
1747;SDS011;871;47.034;15.394;2023-02-28T21:46:54;58.83;;;13.07;;
1747;SDS011;871;47.034;15.394;2023-02-28T21:49:22;54.28;;;12.43;;
1747;SDS011;871;47.034;15.394;2023-02-28T21:51:48;54.17;;;12.70;;
1747;SDS011;871;47.034;15.394;2023-02-28T21:54:14;48.90;;;10.45;;
1747;SDS011;871;47.034;15.394;2023-02-28T21:56:40;52.53;;;11.73;;
